Date,TemperatureHighF,TemperatureAvgF,TemperatureLowF,DewpointHighF,DewpointAvgF,DewpointLowF,HumidityHigh,HumidityAvg,HumidityLow,PressureMaxIn,PressureMinIn,WindSpeedMaxMPH,WindSpeedAvgMPH,GustSpeedMaxMPH,PrecipitationSumIn
2013-9-1,90.0,81.4,75.3,65.8,62.7,59.5,69,54,39,29.79,29.71,21,8,25,0.00
2013-9-2,94.2,84.2,74.9,62.0,56.8,50.5,59,41,27,29.79,29.67,29,5,29,0.00
2013-9-3,94.0,84.6,72.5,58.0,54.6,49.7,55,37,26,29.79,29.69,23,5,25,0.00
2013-9-4,98.4,84.9,69.4,57.2,53.5,49.8,58,36,21,29.83,29.70,18,4,23,0.00
2013-9-5,97.5,85.2,72.2,57.0,51.4,47.9,52,33,20,29.80,29.69,19,3,24,0.00
2013-9-6,98.0,84.7,68.6,52.4,48.0,42.8,51,30,19,29.80,29.65,23,4,26,0.00
2013-9-7,97.8,84.1,66.7,51.1,43.6,38.8,47,26,15,29.78,29.65,21,4,24,0.00
2013-9-8,96.7,84.0,69.5,50.9,42.4,37.7,39,24,14,29.73,29.59,24,3,24,0.00
2013-9-9,94.7,81.8,72.4,54.4,48.2,39.2,50,33,20,29.71,29.55,22,4,24,0.00
2013-9-10,87.6,79.8,75.7,42.8,40.4,37.9,29,25,19,29.73,29.60,31,11,31,0.00
2013-9-11,88.5,79.7,73.1,48.5,40.4,32.4,34,25,20,29.81,29.73,24,8,28,0.00
2013-9-12,91.9,80.6,68.5,49.0,39.9,24.3,41,25,10,29.80,29.69,22,4,23,0.00
2013-9-13,95.9,81.0,66.0,49.3,45.2,40.1,44,29,18,29.73,29.55,17,2,17,0.00
2013-9-14,98.0,82.3,64.6,52.0,47.4,41.6,56,32,15,29.64,29.51,20,3,20,0.00
2013-9-15,96.5,82.7,66.9,52.7,45.3,39.2,53,29,15,29.67,29.57,24,4,27,0.00
2013-9-16,94.1,80.7,63.7,46.8,40.1,28.5,44,25,16,29.73,29.61,23,3,27,0.00
2013-9-17,86.8,76.2,64.4,48.5,37.2,18.1,44,27,9,29.68,29.57,22,6,23,0.00
2013-9-18,88.1,72.8,57.5,50.9,41.0,29.6,55,35,13,29.70,29.61,17,2,18,0.00
2013-9-19,93.1,75.1,56.6,50.1,39.4,27.6,62,33,10,29.77,29.64,13,2,15,0.00
2013-9-20,86.2,73.1,60.2,55.9,44.2,33.6,63,37,22,29.72,29.61,32,6,32,0.00
2013-9-21,75.4,67.1,58.9,53.0,49.0,45.1,69,53,41,29.74,29.64,28,9,31,0.00
2013-9-22,70.0,60.7,53.4,48.0,41.7,36.5,71,51,31,29.86,29.71,24,9,27,0.00
2013-9-23,86.8,67.4,49.8,44.1,39.0,34.2,72,41,16,29.95,29.82,13,1,13,0.00
2013-9-24,87.3,73.1,56.8,43.4,36.5,28.8,51,29,14,29.86,29.71,29,6,30,0.00
2013-9-25,74.2,65.2,57.5,52.5,42.7,39.4,60,44,31,29.72,29.57,28,10,29,0.00
2013-9-26,66.2,57.5,51.2,40.4,35.0,25.8,63,44,22,29.88,29.64,24,9,27,0.00
2013-9-27,73.1,60.3,45.8,36.6,28.0,20.2,62,32,14,30.05,29.88,18,4,19,0.00
2013-9-28,81.7,66.1,44.2,34.2,27.8,22.3,62,27,12,30.08,29.94,13,1,13,0.00
2013-9-29,87.8,70.3,49.3,33.8,29.0,17.8,46,24,9,30.02,29.88,18,4,20,0.00
2013-9-30,83.3,74.3,64.0,40.1,35.6,30.4,35,25,18,29.92,29.75,24,6,26,0.00